Terminal Aerodrome Forecast
Issued by NWS Pocatello, ID

Home | Current Version | Previous Version | Text Only | Print | Product List | Glossary On
Versions: 1 2 3 4 5 6 7 8 9 10 11 12 13 14 15 16 17 18 19 20 21 22 23 24 25 26 27 28 29 30 31 32 33 34 35 36 37 38
631
FTUS45 KPIH 160521
TAFPIH
TAF
KPIH 160521Z 1606/1706 03007KT P6SM SCT030 OVC100
      TEMPO 1606/1610 OVC025
     FM161200 VRB05KT 3SM -SN BR SCT004 OVC010
     FM161900 21011KT P6SM VCSH OVC015
     FM170100 19006KT P6SM OVC012=

USA.gov is the U.S. government's official web portal to all federal, state and local government web resources and services.